Time;durP1;ratioP1;P1;durP2;ratioP2;P2;SDS_P1;SDS_P2;PMS_P1;PMS_P2;Temp;Humidity;BMP_temperature;BMP_pressure;BME280_temperature;BME280_humidity;BME280_pressure;Samples;Min_cycle;Max_cycle;Signal;HPM_P1;HPM_P2
2022/10/28 00:01:13;;;;;;;11.73;7.85;;;;;;;11.65;69.67;100573.42;1795145;80;22041;-40
2022/10/28 00:03:45;;;;;;;11.95;7.95;;;;;;;11.63;69.66;100568.31;1795120;80;20951;-40
2022/10/28 00:06:16;;;;;;;9.85;7.97;;;;;;;11.61;69.52;100565.16;1792982;80;21552;-40
2022/10/28 00:08:44;;;;;;;10.00;7.67;;;;;;;11.56;69.58;100568.09;1788352;80;21066;-41
2022/10/28 00:11:15;;;;;;;10.00;7.22;;;;;;;11.46;69.71;100569.07;1795157;80;21481;-41
2022/10/28 00:13:43;;;;;;;11.10;7.28;;;;;;;11.38;69.99;100566.66;1795162;80;21224;-40
2022/10/28 00:16:17;;;;;;;11.57;7.55;;;;;;;11.38;70.09;100570.73;1795302;80;20996;-41
2022/10/28 00:18:45;;;;;;;11.55;7.62;;;;;;;11.40;70.30;100573.92;1795081;80;20947;-41
2022/10/28 00:21:15;;;;;;;11.93;7.55;;;;;;;11.39;70.28;100572.89;1795277;80;20920;-41
2022/10/28 00:23:42;;;;;;;11.85;8.30;;;;;;;11.33;70.28;100561.44;1794305;80;21055;-41
2022/10/28 00:26:14;;;;;;;11.90;8.08;;;;;;;11.26;70.40;100559.29;1789584;80;20948;-40
2022/10/28 00:28:52;;;;;;;11.20;7.92;;;;;;;11.20;70.62;100566.05;1789204;80;20881;-40
2022/10/28 00:31:21;;;;;;;14.50;7.55;;;;;;;11.17;70.71;100572.16;1789481;80;20947;-41
2022/10/28 00:33:48;;;;;;;13.28;7.78;;;;;;;11.19;70.81;100570.44;1789245;80;21003;-40
2022/10/28 00:36:22;;;;;;;11.25;8.40;;;;;;;11.22;70.83;100576.58;1789198;80;20968;-41
2022/10/28 00:38:52;;;;;;;11.95;9.00;;;;;;;11.18;70.95;100571.59;1789322;80;20873;-40
2022/10/28 00:41:26;;;;;;;11.90;7.97;;;;;;;11.18;71.03;100574.31;1789733;80;20975;-40
2022/10/28 00:43:56;;;;;;;11.97;7.40;;;;;;;11.17;71.06;100583.01;1789250;80;20936;-41
2022/10/28 00:46:34;;;;;;;11.53;7.70;;;;;;;11.17;70.95;100575.43;1789684;80;21766;-40
2022/10/28 00:49:12;;;;;;;11.15;8.30;;;;;;;11.18;70.94;100573.72;1789112;80;21070;-40
2022/10/28 00:51:39;;;;;;;10.25;8.08;;;;;;;11.18;70.91;100575.08;1788195;80;21093;-40
2022/10/28 00:54:06;;;;;;;15.90;9.23;;;;;;;11.14;71.02;100574.16;1789237;80;20952;-41
2022/10/28 00:56:38;;;;;;;12.33;9.18;;;;;;;11.08;71.07;100569.29;1789190;80;20991;-40
2022/10/28 00:59:13;;;;;;;13.08;8.48;;;;;;;11.03;71.27;100576.28;1789629;80;21239;-41
2022/10/28 01:01:40;;;;;;;12.53;8.30;;;;;;;11.02;71.28;100574.68;1789211;80;21067;-40
2022/10/28 01:04:07;;;;;;;10.98;8.70;;;;;;;11.02;71.40;100575.48;1789328;80;21168;-41
2022/10/28 01:06:34;;;;;;;11.88;8.73;;;;;;;11.04;71.43;100568.34;1789234;80;21036;-41
2022/10/28 01:09:01;;;;;;;12.73;8.75;;;;;;;11.00;71.58;100569.58;1758729;80;21473;-41
2022/10/28 01:11:39;;;;;;;12.25;9.00;;;;;;;10.97;71.57;100564.83;1789124;80;20935;-40
2022/10/28 01:14:32;;;;;;;14.87;8.65;;;;;;;10.92;71.55;100562.31;1788359;80;21063;-40
2022/10/28 01:17:05;;;;;;;11.35;8.35;;;;;;;10.86;71.67;100572.57;1789430;80;21872;-41
2022/10/28 01:20:26;;;;;;;11.75;8.90;;;;;;;10.84;71.81;100566.67;1788774;80;21002;-41
2022/10/28 01:23:28;;;;;;;12.10;9.73;;;;;;;10.82;72.02;100569.50;1789332;80;20995;-40
2022/10/28 01:26:15;;;;;;;13.75;9.13;;;;;;;10.77;72.32;100569.13;1789156;80;21034;-40
2022/10/28 01:29:15;;;;;;;11.55;9.00;;;;;;;10.72;72.40;100578.03;1772820;80;21039;-40
2022/10/28 01:31:52;;;;;;;12.63;8.65;;;;;;;10.66;72.56;100572.00;1789060;80;23257;-40
2022/10/28 01:34:33;;;;;;;11.63;8.83;;;;;;;10.68;72.68;100570.33;1789147;80;21474;-40
2022/10/28 01:37:24;;;;;;;12.65;9.40;;;;;;;10.68;72.82;100574.39;1755216;80;20971;-40
2022/10/28 01:39:59;;;;;;;13.05;9.43;;;;;;;10.67;72.86;100571.44;1789150;80;20991;-41
2022/10/28 01:42:46;;;;;;;10.30;9.20;;;;;;;10.67;73.00;100570.88;1789168;80;21055;-41
2022/10/28 01:45:23;;;;;;;11.85;8.80;;;;;;;10.68;72.91;100573.83;1789189;80;21188;-40
2022/10/28 01:47:58;;;;;;;14.10;8.28;;;;;;;10.71;72.81;100575.87;1783169;80;20956;-40
2022/10/28 01:50:33;;;;;;;17.77;9.35;;;;;;;10.76;72.70;100577.03;1789245;80;20995;-40
2022/10/28 01:53:04;;;;;;;10.88;8.58;;;;;;;10.83;72.60;100568.38;1789465;80;20999;-41
2022/10/28 01:55:41;;;;;;;12.43;8.88;;;;;;;10.86;72.61;100578.55;1789344;80;20992;-41
2022/10/28 01:58:09;;;;;;;12.80;9.38;;;;;;;10.88;72.44;100577.11;1789465;80;21063;-41
2022/10/28 02:00:36;;;;;;;13.38;9.20;;;;;;;10.89;72.37;100579.27;1788994;80;20908;-40
2022/10/28 02:03:07;;;;;;;16.07;8.53;;;;;;;10.96;72.11;100578.72;1789247;80;21019;-41
2022/10/28 02:05:50;;;;;;;11.97;8.73;;;;;;;10.98;71.83;100585.41;1789211;80;21482;-41
2022/10/28 02:08:23;;;;;;;12.28;8.73;;;;;;;10.96;71.87;100584.94;1789514;80;21493;-40
2022/10/28 02:11:14;;;;;;;13.28;8.15;;;;;;;10.89;72.14;100578.68;1789081;80;21020;-40
2022/10/28 02:14:09;;;;;;;;;;;;;;;10.89;72.24;100576.55;1762169;80;20991;-40
2022/10/28 02:17:09;;;;;;;14.33;9.23;;;;;;;10.84;72.22;100580.83;1772202;81;20414;-40
2022/10/28 02:19:49;;;;;;;14.78;8.50;;;;;;;10.67;72.54;100588.52;1772140;80;20937;-40
2022/10/28 02:22:26;;;;;;;13.08;9.48;;;;;;;10.69;72.76;100583.56;1789292;80;20996;-40
2022/10/28 02:25:15;;;;;;;10.98;8.60;;;;;;;10.75;72.72;100570.58;1790354;80;21855;-41
2022/10/28 02:29:27;;;;;;;15.70;9.30;;;;;;;10.78;72.76;100569.37;1830493;78;22452;-41
2022/10/28 02:32:02;;;;;;;13.40;8.60;;;;;;;10.70;72.94;100575.64;1803125;79;20924;-41
2022/10/28 02:34:36;;;;;;;14.00;9.80;;;;;;;10.76;72.84;100574.32;1802998;79;21068;-40
2022/10/28 02:37:07;;;;;;;12.55;9.45;;;;;;;10.79;72.52;100570.17;1803121;79;21013;-40
2022/10/28 02:39:44;;;;;;;11.18;9.30;;;;;;;10.77;72.51;100566.42;1795428;79;20946;-40
2022/10/28 02:42:29;;;;;;;15.10;9.13;;;;;;;10.72;72.73;100571.25;1778481;80;21019;-41
2022/10/28 02:45:00;;;;;;;17.32;9.95;;;;;;;10.67;72.77;100572.23;1777697;80;21573;-40
2022/10/28 02:47:31;;;;;;;14.53;9.58;;;;;;;10.61;72.90;100568.69;1778725;80;21125;-41
2022/10/28 02:50:01;;;;;;;14.55;9.88;;;;;;;10.56;72.92;100569.67;1778729;80;20976;-41
2022/10/28 02:52:29;;;;;;;13.05;9.95;;;;;;;10.57;73.00;100575.34;1778719;80;21577;-40
2022/10/28 02:54:58;;;;;;;14.85;10.23;;;;;;;10.63;72.99;100575.38;1778434;80;21040;-40
2022/10/28 02:57:34;;;;;;;13.80;10.40;;;;;;;10.57;72.96;100580.77;1778528;80;20901;-41
2022/10/28 03:00:09;;;;;;;15.08;10.68;;;;;;;10.49;73.17;100578.91;1778528;80;21116;-40
2022/10/28 03:02:35;;;;;;;15.68;10.20;;;;;;;10.43;73.42;100577.50;1778418;80;21538;-40
2022/10/28 03:05:05;;;;;;;13.53;9.73;;;;;;;10.40;73.48;100572.75;1778785;80;20984;-40
2022/10/28 03:07:34;;;;;;;13.40;9.25;;;;;;;10.43;73.43;100568.02;1778527;80;21553;-40
2022/10/28 03:10:01;;;;;;;13.65;9.55;;;;;;;10.45;73.33;100571.20;1778505;80;21008;-40
2022/10/28 03:12:28;;;;;;;15.05;11.28;;;;;;;10.41;73.55;100568.34;1778479;80;21129;-40
2022/10/28 03:14:56;;;;;;;17.55;12.15;;;;;;;10.37;73.65;100576.90;1778342;80;20976;-40
2022/10/28 03:17:23;;;;;;;15.08;11.18;;;;;;;10.35;73.70;100567.52;1778577;80;21040;-41
2022/10/28 03:19:51;;;;;;;14.47;10.43;;;;;;;10.34;73.81;100565.92;1778372;80;21012;-40
2022/10/28 03:22:18;;;;;;;15.18;10.48;;;;;;;10.38;73.64;100564.14;1778636;80;21007;-41
2022/10/28 03:24:45;;;;;;;14.28;11.20;;;;;;;10.43;73.60;100566.66;1778259;80;23142;-40
2022/10/28 03:27:11;;;;;;;16.85;11.40;;;;;;;10.43;73.51;100565.30;1778676;79;21622;-41
2022/10/28 03:29:38;;;;;;;15.68;10.75;;;;;;;10.38;73.36;100564.14;1798517;79;20936;-40
2022/10/28 03:32:05;;;;;;;16.90;11.25;;;;;;;10.28;73.45;100568.02;1798397;79;21427;-40
2022/10/28 03:34:33;;;;;;;14.90;10.82;;;;;;;10.24;73.58;100570.37;1798569;79;21043;-41
2022/10/28 03:37:00;;;;;;;16.85;10.93;;;;;;;10.30;73.62;100564.44;1798613;79;21191;-40
2022/10/28 03:39:27;;;;;;;16.45;10.90;;;;;;;10.37;73.47;100568.77;1798177;79;20987;-40
2022/10/28 03:41:54;;;;;;;16.05;11.80;;;;;;;10.35;73.42;100568.31;1797824;79;21043;-41
2022/10/28 03:44:21;;;;;;;17.75;11.60;;;;;;;10.33;73.47;100569.75;1798045;79;21521;-40
2022/10/28 03:46:49;;;;;;;14.98;10.70;;;;;;;10.33;73.36;100567.04;1797917;79;21548;-40
2022/10/28 03:49:16;;;;;;;15.78;10.20;;;;;;;10.30;73.22;100572.57;1797886;79;21127;-40
2022/10/28 03:51:43;;;;;;;17.07;11.18;;;;;;;10.29;73.18;100568.82;1797871;79;20972;-40
2022/10/28 03:54:09;;;;;;;14.85;11.65;;;;;;;10.26;73.16;100570.84;1798053;79;21540;-40
2022/10/28 03:56:39;;;;;;;16.90;12.15;;;;;;;10.19;73.38;100567.28;1797982;79;21014;-41
2022/10/28 03:59:08;;;;;;;18.35;12.85;;;;;;;10.14;73.52;100562.58;1798216;79;21082;-40
2022/10/28 04:01:35;;;;;;;19.80;12.05;;;;;;;10.10;73.57;100565.71;1797976;79;21869;-41
2022/10/28 04:04:03;;;;;;;17.55;11.63;;;;;;;10.12;73.58;100553.99;1797961;79;21032;-41
2022/10/28 04:06:30;;;;;;;16.07;11.57;;;;;;;10.14;73.47;100551.18;1797899;79;20987;-41
2022/10/28 04:08:58;;;;;;;18.27;12.82;;;;;;;10.20;73.33;100540.98;1797894;79;21022;-40
2022/10/28 04:11:24;;;;;;;17.32;11.83;;;;;;;10.20;73.35;100549.11;1798015;79;21568;-41
2022/10/28 04:13:51;;;;;;;17.60;12.58;;;;;;;10.16;73.25;100553.60;1797911;79;21183;-41
2022/10/28 04:16:18;;;;;;;18.50;11.73;;;;;;;10.09;73.36;100545.94;1797895;79;20956;-40
2022/10/28 04:18:45;;;;;;;15.00;11.10;;;;;;;10.08;73.29;100551.68;1797937;79;20964;-40
2022/10/28 04:21:13;;;;;;;16.87;11.68;;;;;;;10.10;73.33;100551.60;1797985;79;20940;-40
2022/10/28 04:23:40;;;;;;;16.75;12.53;;;;;;;10.13;73.23;100556.91;1797992;79;21082;-41
2022/10/28 04:26:06;;;;;;;16.93;12.73;;;;;;;10.06;73.27;100552.03;1797766;79;21114;-40
2022/10/28 04:28:33;;;;;;;18.37;12.80;;;;;;;9.99;73.38;100557.14;1787025;79;21231;-41
2022/10/28 04:31:01;;;;;;;18.10;13.08;;;;;;;9.93;73.55;100549.77;1772625;81;20992;-40
2022/10/28 04:33:28;;;;;;;16.48;12.65;;;;;;;9.95;73.58;100555.66;1772626;81;21339;-40
2022/10/28 04:35:55;;;;;;;16.95;11.20;;;;;;;10.01;73.51;100557.62;1772552;81;21023;-40
2022/10/28 04:38:22;;;;;;;18.23;12.63;;;;;;;10.05;73.32;100562.63;1772670;81;21260;-40
2022/10/28 04:40:50;;;;;;;20.62;14.00;;;;;;;10.01;73.19;100562.49;1772503;81;20944;-40
2022/10/28 04:43:17;;;;;;;16.02;13.60;;;;;;;9.93;73.20;100563.30;1772706;81;20917;-41
2022/10/28 04:45:45;;;;;;;20.25;14.30;;;;;;;9.85;73.19;100564.70;1772657;81;20993;-40
2022/10/28 04:48:12;;;;;;;19.85;14.38;;;;;;;9.80;73.17;100560.81;1772990;81;21001;-40
2022/10/28 04:50:39;;;;;;;19.67;15.38;;;;;;;9.81;73.09;100564.56;1772619;81;21227;-41
2022/10/28 04:53:09;;;;;;;28.35;16.23;;;;;;;9.76;73.00;100567.45;1719732;83;21596;-40
2022/10/28 04:55:35;;;;;;;23.12;15.60;;;;;;;9.66;73.14;100561.59;1777912;80;21530;-40
2022/10/28 04:58:02;;;;;;;35.88;16.37;;;;;;;9.56;73.24;100561.38;1777882;80;21566;-40
2022/10/28 05:00:29;;;;;;;24.98;15.58;;;;;;;9.42;73.35;100566.19;1778018;80;21107;-40
2022/10/28 05:02:56;;;;;;;17.35;14.53;;;;;;;9.31;73.60;100571.70;1777778;80;21077;-40
2022/10/28 05:05:23;;;;;;;19.30;14.28;;;;;;;9.25;73.71;100572.97;1747490;80;20992;-40
2022/10/28 05:07:50;;;;;;;21.97;15.18;;;;;;;9.22;73.96;100573.63;1777837;80;21023;-40
2022/10/28 05:10:16;;;;;;;33.65;19.42;;;;;;;9.10;74.16;100569.66;1777843;80;20914;-40
2022/10/28 05:12:45;;;;;;;43.15;31.35;;;;;;;9.01;74.48;100571.57;1777810;80;20985;-40
2022/10/28 05:15:13;;;;;;;31.93;28.62;;;;;;;8.93;74.62;100569.67;1777919;80;21134;-40
2022/10/28 05:17:43;;;;;;;16.30;13.75;;;;;;;8.86;74.83;100578.05;1777939;80;21016;-40
2022/10/28 05:20:11;;;;;;;24.37;18.50;;;;;;;8.84;74.82;100574.84;1777791;80;20984;-40
2022/10/28 05:22:37;;;;;;;86.10;66.70;;;;;;;8.77;75.09;100576.66;1778029;80;20972;-40
2022/10/28 05:25:05;;;;;;;65.85;44.58;;;;;;;8.75;75.42;100580.25;1777676;80;21025;-40
2022/10/28 05:27:32;;;;;;;23.85;17.80;;;;;;;8.76;75.53;100584.56;1778284;80;21081;-40
2022/10/28 05:29:59;;;;;;;18.27;14.60;;;;;;;8.79;75.38;100587.97;1777799;80;20933;-40
2022/10/28 05:32:26;;;;;;;13.90;11.57;;;;;;;8.82;75.22;100592.73;1777943;80;20929;-40
2022/10/28 05:34:53;;;;;;;12.23;10.58;;;;;;;8.90;75.22;100585.20;1777687;80;21025;-40
2022/10/28 05:37:20;;;;;;;14.90;13.32;;;;;;;8.89;75.05;100595.77;1777918;80;21529;-40
2022/10/28 05:39:48;;;;;;;10.82;9.43;;;;;;;8.87;74.81;100594.48;1777698;80;23165;-40
2022/10/28 05:42:15;;;;;;;10.13;9.13;;;;;;;8.78;74.52;100591.78;1777710;80;21492;-40
2022/10/28 05:44:41;;;;;;;10.00;7.40;;;;;;;8.74;74.75;100596.23;1777931;80;21633;-40
2022/10/28 05:47:08;;;;;;;8.95;8.05;;;;;;;8.75;74.82;100592.42;1777876;80;21033;-40
2022/10/28 05:49:34;;;;;;;11.18;9.98;;;;;;;8.75;74.71;100597.83;1777692;80;21076;-40
2022/10/28 05:52:01;;;;;;;9.68;8.68;;;;;;;8.72;74.90;100599.24;1777872;80;21228;-40
2022/10/28 05:54:29;;;;;;;8.65;7.75;;;;;;;8.71;75.04;100600.94;1777839;80;21305;-40
2022/10/28 05:56:55;;;;;;;8.80;7.90;;;;;;;8.70;75.17;100600.69;1777629;80;21016;-40
2022/10/28 05:59:22;;;;;;;9.78;8.78;;;;;;;8.80;75.40;100601.73;1777866;80;21549;-40
2022/10/28 06:01:49;;;;;;;10.03;9.03;;;;;;;8.89;75.12;100605.23;1777768;80;22081;-40
2022/10/28 06:04:16;;;;;;;10.58;9.48;;;;;;;8.87;75.05;100595.28;1777755;80;21076;-40
2022/10/28 06:06:44;;;;;;;13.20;10.63;;;;;;;8.86;75.17;100604.50;1777648;80;20909;-40
2022/10/28 06:09:11;;;;;;;13.48;12.07;;;;;;;8.83;75.11;100602.44;1777706;80;20967;-40
2022/10/28 06:11:39;;;;;;;12.68;9.75;;;;;;;8.82;75.28;100606.80;1777697;80;20977;-40
2022/10/28 06:14:06;;;;;;;10.95;8.50;;;;;;;8.90;75.46;100609.53;1777940;80;21012;-40
2022/10/28 06:16:33;;;;;;;8.73;7.92;;;;;;;8.95;75.29;100612.09;1777910;80;21231;-40
2022/10/28 06:19:01;;;;;;;10.48;8.88;;;;;;;8.93;75.25;100609.45;1777879;80;20977;-40
2022/10/28 06:21:28;;;;;;;10.08;8.38;;;;;;;8.92;75.56;100614.05;1777715;80;21059;-40
2022/10/28 06:23:54;;;;;;;8.73;7.90;;;;;;;8.95;75.53;100620.20;1777804;80;21040;-40
2022/10/28 06:26:21;;;;;;;10.15;8.20;;;;;;;9.03;75.42;100624.81;1777926;80;21554;-40
2022/10/28 06:28:49;;;;;;;9.75;8.75;;;;;;;9.09;75.26;100627.60;1777633;80;20968;-40
2022/10/28 06:31:16;;;;;;;10.60;8.48;;;;;;;9.09;75.26;100626.25;1777761;80;20988;-40
2022/10/28 06:33:43;;;;;;;10.40;8.70;;;;;;;9.07;75.38;100625.76;1777743;80;21000;-40
2022/10/28 06:36:10;;;;;;;8.88;7.87;;;;;;;9.06;75.35;100624.72;1778218;80;21055;-40
2022/10/28 06:38:37;;;;;;;10.82;7.95;;;;;;;9.09;75.28;100626.80;1777821;80;21016;-40
2022/10/28 06:41:04;;;;;;;8.55;7.65;;;;;;;9.14;75.08;100632.86;1777767;80;23156;-40
2022/10/28 06:43:31;;;;;;;7.75;7.05;;;;;;;9.20;75.12;100632.70;1777822;80;21040;-40
2022/10/28 06:46:03;;;;;;;7.62;6.67;;;;;;;9.25;75.15;100629.80;1777623;80;20901;-40
2022/10/28 06:48:31;;;;;;;8.00;7.17;;;;;;;9.30;74.91;100633.70;1778113;80;20948;-40
2022/10/28 06:50:57;;;;;;;46.18;33.13;;;;;;;9.36;74.77;100627.02;1777945;80;21024;-40
2022/10/28 06:53:25;;;;;;;15.60;11.88;;;;;;;9.44;74.38;100620.81;1777732;80;21968;-40
2022/10/28 06:55:54;;;;;;;52.00;33.67;;;;;;;9.54;74.10;100623.16;1764240;80;20979;-40
2022/10/28 06:58:21;;;;;;;94.60;63.52;;;;;;;9.62;73.78;100623.72;1684673;82;20984;-40
2022/10/28 07:00:48;;;;;;;115.72;76.10;;;;;;;9.64;73.83;100618.77;1690991;84;21049;-40
2022/10/28 07:03:15;;;;;;;50.78;38.35;;;;;;;9.68;73.58;100619.73;1755473;80;20997;-40
2022/10/28 07:05:41;;;;;;;32.83;24.57;;;;;;;9.69;73.62;100621.30;1743043;81;21138;-40
2022/10/28 07:08:08;;;;;;;25.72;18.75;;;;;;;9.74;73.65;100617.06;1742990;82;21080;-40
2022/10/28 07:10:35;;;;;;;24.75;21.95;;;;;;;9.83;73.63;100621.89;1726812;83;21336;-40
2022/10/28 07:13:02;;;;;;;15.32;13.62;;;;;;;9.90;73.39;100616.78;1791163;80;21519;-40
2022/10/28 07:15:30;;;;;;;9.13;7.17;;;;;;;9.92;73.29;100611.82;1791779;79;20963;-41
2022/10/28 07:17:58;;;;;;;12.03;10.65;;;;;;;9.87;73.19;100616.65;1785668;79;21133;-41
2022/10/28 07:20:27;;;;;;;17.98;14.78;;;;;;;9.82;73.52;100614.91;1791617;80;21013;-40
2022/10/28 07:23:01;;;;;;;8.05;7.25;;;;;;;9.85;73.84;100614.81;1792035;80;21034;-41
2022/10/28 07:25:29;;;;;;;16.35;14.60;;;;;;;9.96;73.88;100604.66;1754012;81;21554;-41
2022/10/28 07:27:57;;;;;;;28.30;21.10;;;;;;;10.08;73.88;100599.09;1743321;82;21534;-40
2022/10/28 07:30:26;;;;;;;17.55;10.90;;;;;;;10.13;73.73;100595.65;1743287;81;21028;-41
2022/10/28 07:32:54;;;;;;;24.95;19.00;;;;;;;10.22;73.73;100598.34;1743107;82;20961;-41
2022/10/28 07:35:21;;;;;;;10.53;8.43;;;;;;;10.25;73.54;100599.06;1743248;82;20982;-41
2022/10/28 07:37:48;;;;;;;13.18;10.53;;;;;;;10.30;73.56;100590.19;1743135;82;21017;-41
2022/10/28 07:40:15;;;;;;;7.28;6.58;;;;;;;10.43;73.43;100594.57;1737608;82;21019;-41
2022/10/28 07:42:42;;;;;;;22.95;18.02;;;;;;;10.55;73.30;100592.52;1731241;82;21142;-41
2022/10/28 07:45:10;;;;;;;10.45;9.28;;;;;;;10.62;73.07;100590.06;1728645;82;21793;-41
2022/10/28 07:47:37;;;;;;;11.05;8.45;;;;;;;10.69;72.67;100589.55;1718872;82;21554;-41
2022/10/28 07:50:05;;;;;;;10.05;8.38;;;;;;;10.72;72.63;100588.31;1712675;83;21456;-41
2022/10/28 07:52:33;;;;;;;8.08;6.80;;;;;;;10.79;72.41;100587.80;1712776;83;21599;-41
2022/10/28 07:54:59;;;;;;;7.35;6.50;;;;;;;10.83;72.00;100600.38;1732057;82;21274;-40
2022/10/28 07:57:26;;;;;;;14.35;12.05;;;;;;;10.85;72.05;100595.39;1719744;82;21039;-40
2022/10/28 07:59:53;;;;;;;10.30;8.13;;;;;;;10.85;72.33;100600.81;1787431;80;20954;-41
2022/10/28 08:02:22;;;;;;;9.03;7.55;;;;;;;10.85;72.66;100600.81;1774953;80;20918;-41
2022/10/28 08:04:50;;;;;;;;;;;;;;;10.88;72.74;100600.17;1793895;80;21021;-41
2022/10/28 08:07:18;;;;;;;34.80;25.40;;;;;;;10.96;72.60;100607.20;1789934;79;21285;-41
2022/10/28 08:09:46;;;;;;;9.70;8.10;;;;;;;10.99;72.48;100603.84;1791171;79;21069;-41
2022/10/28 08:12:14;;;;;;;8.53;7.33;;;;;;;11.06;72.21;100606.25;1753731;81;21625;-41
2022/10/28 08:14:41;;;;;;;10.00;7.15;;;;;;;11.13;72.02;100609.80;1740681;82;21613;-41
2022/10/28 08:17:08;;;;;;;8.85;6.75;;;;;;;11.17;72.03;100606.64;1738699;82;21046;-41
2022/10/28 08:19:35;;;;;;;10.45;8.68;;;;;;;11.26;71.80;100610.07;1724824;82;21598;-41
2022/10/28 08:22:03;;;;;;;9.13;7.83;;;;;;;11.39;71.44;100611.70;1729279;82;20966;-41
2022/10/28 08:24:35;;;;;;;9.65;7.80;;;;;;;11.54;70.95;100607.56;1743041;82;21021;-41
2022/10/28 08:27:02;;;;;;;8.53;7.03;;;;;;;11.68;70.36;100608.84;1742355;82;21013;-40
2022/10/28 08:29:29;;;;;;;8.10;6.37;;;;;;;11.76;70.10;100606.62;1742482;82;21790;-41
2022/10/28 08:31:56;;;;;;;8.90;5.90;;;;;;;11.84;69.88;100613.66;1743084;82;22077;-40
2022/10/28 08:34:28;;;;;;;6.95;6.22;;;;;;;11.91;69.70;100609.84;1743178;82;21009;-40
2022/10/28 08:36:52;;;;;;;6.50;5.12;;;;;;;11.94;69.42;100610.52;1742630;82;21499;-40
2022/10/28 08:39:19;;;;;;;6.05;5.10;;;;;;;12.02;69.37;100609.61;1743223;82;21484;-40
2022/10/28 08:42:03;;;;;;;7.10;5.22;;;;;;;12.15;68.81;100611.22;1743103;82;21053;-40
2022/10/28 08:45:19;;;;;;;6.45;5.40;;;;;;;12.20;68.39;100602.81;1743053;82;23118;-40
2022/10/28 08:48:10;;;;;;;5.35;4.75;;;;;;;12.26;68.11;100597.95;1742087;81;21258;-40
2022/10/28 08:50:45;;;;;;;9.03;7.50;;;;;;;12.28;67.85;100596.48;1742847;82;21089;-40
2022/10/28 08:53:20;;;;;;;7.40;5.85;;;;;;;12.29;67.96;100600.80;1726491;82;21037;-40
2022/10/28 08:55:47;;;;;;;6.87;5.75;;;;;;;12.38;68.26;100597.39;1714324;82;21058;-40
2022/10/28 08:58:27;;;;;;;10.03;6.45;;;;;;;12.51;68.35;100600.31;1714468;83;21260;-40
2022/10/28 09:00:55;;;;;;;8.45;6.15;;;;;;;12.66;67.76;100599.39;1714712;83;20966;-40
2022/10/28 09:03:25;;;;;;;7.05;5.62;;;;;;;12.73;67.38;100592.81;1714434;82;20998;-40
2022/10/28 09:06:01;;;;;;;7.90;5.90;;;;;;;12.80;66.92;100590.28;1714529;82;21006;-40
2022/10/28 09:08:42;;;;;;;7.37;5.42;;;;;;;12.86;66.33;100588.92;1774493;80;21107;-40
2022/10/28 09:11:24;;;;;;;9.55;7.03;;;;;;;12.99;65.80;100589.09;1775645;80;23132;-40
2022/10/28 09:14:14;;;;;;;7.10;5.22;;;;;;;12.99;65.80;100589.09;1759855;81;20961;-40
2022/10/28 09:16:54;;;;;;;6.03;4.65;;;;;;;13.07;65.75;100586.22;1777800;80;21738;-40
2022/10/28 09:19:34;;;;;;;5.90;4.28;;;;;;;13.24;64.75;100589.27;1765479;80;20993;-40
2022/10/28 09:22:29;;;;;;;5.03;4.53;;;;;;;13.55;63.98;100573.57;1772734;81;21548;-40
2022/10/28 09:25:24;;;;;;;7.00;4.30;;;;;;;13.55;63.98;100573.57;1759853;81;23172;-40
2022/10/28 09:28:35;;;;;;;5.97;4.20;;;;;;;13.70;62.42;100568.68;1760183;81;21015;-41
2022/10/28 09:31:19;;;;;;;6.10;4.55;;;;;;;13.83;62.55;100569.41;1769190;80;20927;-40
2022/10/28 09:33:57;;;;;;;7.25;4.33;;;;;;;14.00;60.79;100562.80;1798147;79;21668;-40
2022/10/28 09:36:39;;;;;;;6.33;3.83;;;;;;;14.10;60.67;100558.97;1802033;79;21060;-44
2022/10/28 09:39:06;;;;;;;4.33;3.40;;;;;;;14.22;59.71;100571.15;1795481;79;21165;-43
2022/10/28 09:41:36;;;;;;;4.67;3.50;;;;;;;14.36;57.71;100561.16;1761732;81;21467;-44
2022/10/28 09:44:20;;;;;;;5.50;3.15;;;;;;;14.47;58.05;100558.68;1736817;82;21568;-43
2022/10/28 09:46:53;;;;;;;5.15;3.12;;;;;;;14.60;58.06;100557.41;1751337;82;21049;-44
2022/10/28 09:49:28;;;;;;;3.22;2.58;;;;;;;14.74;55.84;100553.61;1738504;82;21528;-44
2022/10/28 09:52:12;;;;;;;6.00;3.15;;;;;;;14.85;55.10;100552.47;1730063;82;21265;-40
2022/10/28 09:54:47;;;;;;;4.97;2.45;;;;;;;14.97;55.29;100552.31;1750137;82;21478;-40
2022/10/28 09:57:13;;;;;;;7.35;3.90;;;;;;;15.06;52.67;100549.58;1750057;82;21017;-40
2022/10/28 09:59:40;;;;;;;4.67;2.75;;;;;;;15.14;52.91;100545.86;1751252;82;21068;-40
2022/10/28 10:02:15;;;;;;;3.20;2.37;;;;;;;15.21;51.90;100536.98;1737778;81;21058;-40
2022/10/28 10:04:43;;;;;;;3.33;2.05;;;;;;;15.26;51.18;100534.53;1738727;82;21154;-40
2022/10/28 10:07:13;;;;;;;4.78;2.30;;;;;;;15.30;50.39;100534.05;1751048;82;20969;-40
2022/10/28 10:09:42;;;;;;;6.78;2.15;;;;;;;15.36;50.55;100528.48;1751097;81;21090;-40
2022/10/28 10:12:11;;;;;;;2.17;1.82;;;;;;;15.44;50.34;100528.84;1751059;82;21012;-40
2022/10/28 10:14:49;;;;;;;4.08;2.10;;;;;;;15.54;50.51;100526.30;1751002;81;21052;-40
2022/10/28 10:17:23;;;;;;;2.55;1.90;;;;;;;15.58;49.88;100520.34;1751253;82;21070;-40
2022/10/28 10:20:08;;;;;;;2.58;1.85;;;;;;;15.63;50.06;100523.34;1750823;82;21064;-40
2022/10/28 10:22:43;;;;;;;2.95;2.20;;;;;;;15.65;49.27;100521.02;1751101;82;21483;-40
2022/10/28 10:25:28;;;;;;;2.80;1.90;;;;;;;15.61;48.97;100520.97;1750542;82;21020;-40
2022/10/28 10:28:07;;;;;;;2.72;1.77;;;;;;;15.60;49.08;100523.48;1751164;81;21063;-40
2022/10/28 10:30:41;;;;;;;2.47;1.82;;;;;;;15.63;48.47;100517.88;1745851;82;23165;-40
2022/10/28 10:33:16;;;;;;;3.27;1.80;;;;;;;15.65;48.02;100523.75;1732204;82;20974;-40
2022/10/28 10:36:05;;;;;;;2.10;1.60;;;;;;;15.68;47.93;100512.69;1732422;82;20982;-40
2022/10/28 10:38:32;;;;;;;3.15;1.70;;;;;;;15.71;47.77;100505.90;1732567;82;21005;-40
2022/10/28 10:40:59;;;;;;;3.98;2.00;;;;;;;15.75;47.14;100506.73;1732520;82;21115;-40
2022/10/28 10:43:32;;;;;;;3.05;1.85;;;;;;;15.80;48.18;100503.70;1732447;82;21153;-40
2022/10/28 10:46:15;;;;;;;2.17;1.60;;;;;;;15.87;47.74;100509.30;1732330;82;21506;-40
2022/10/28 10:48:41;;;;;;;2.83;1.90;;;;;;;15.90;47.27;100498.98;1732349;82;21022;-40
2022/10/28 10:51:22;;;;;;;3.05;2.00;;;;;;;15.92;47.55;100496.67;1732624;82;21013;-40
2022/10/28 10:53:53;;;;;;;3.60;2.15;;;;;;;16.00;47.55;100494.83;1732628;82;21010;-40
2022/10/28 10:56:29;;;;;;;4.05;2.00;;;;;;;16.05;47.70;100496.67;1730096;82;20954;-40
2022/10/28 10:59:03;;;;;;;4.70;2.40;;;;;;;16.12;47.92;100497.94;1714242;83;21606;-40
2022/10/28 11:01:36;;;;;;;5.47;2.45;;;;;;;16.16;47.66;100500.14;1724603;83;20926;-40
2022/10/28 11:04:06;;;;;;;4.53;2.42;;;;;;;16.23;48.43;100497.50;1719805;82;20942;-40
2022/10/28 11:06:38;;;;;;;3.50;1.82;;;;;;;16.33;47.92;100490.81;1732553;82;21061;-42
2022/10/28 11:09:31;;;;;;;3.00;2.10;;;;;;;16.43;46.84;100492.11;1732387;82;20910;-40
2022/10/28 11:11:58;;;;;;;3.75;2.25;;;;;;;16.46;47.09;100488.62;1732383;82;20970;-41
2022/10/28 11:14:31;;;;;;;2.05;1.85;;;;;;;16.44;47.42;100490.95;1731191;82;20922;-41
2022/10/28 11:17:00;;;;;;;3.37;2.33;;;;;;;16.50;47.19;100488.91;1732469;82;21100;-40
2022/10/28 11:19:30;;;;;;;2.75;2.20;;;;;;;16.59;47.64;100483.75;1732677;82;20938;-41
2022/10/28 11:22:27;;;;;;;2.58;1.90;;;;;;;16.68;47.33;100479.56;1732970;82;21555;-41
2022/10/28 11:25:36;;;;;;;2.40;2.10;;;;;;;16.75;46.83;100479.62;1732569;82;20966;-41
2022/10/28 11:28:34;;;;;;;4.12;1.70;;;;;;;16.87;47.06;100477.23;1733165;82;21016;-41
2022/10/28 11:31:34;;;;;;;3.77;1.80;;;;;;;17.03;46.28;100470.17;1732598;81;21019;-41
2022/10/28 11:34:52;;;;;;;4.05;2.50;;;;;;;17.19;46.33;100472.08;1732954;82;21499;-40
2022/10/28 11:37:44;;;;;;;4.60;2.12;;;;;;;17.28;45.83;100467.86;1732662;82;21252;-41
2022/10/28 11:40:31;;;;;;;4.42;2.30;;;;;;;17.23;45.90;100466.07;1728859;81;21019;-41
2022/10/28 11:43:23;;;;;;;3.87;2.40;;;;;;;17.22;46.37;100469.39;1703048;84;21116;-41
2022/10/28 11:46:14;;;;;;;3.85;2.27;;;;;;;17.28;46.41;100461.01;1707357;83;21096;-41